ESOE/ORB METAR and TAF weather

Enter ICAO airport designator
Station Type Date Time Source
ESOE METAR 2022/06/28 15:20 UTC NOAA

ESOE 281520Z 25005KT 210V280 9999 -RA FEW015 BKN065 17/15 Q1018


Station Type Date Time Source
ESOE Decoded METAR 2022/06/28 15:20 UTC NOAA

Orebro Private , Sweden (ESOE) 59-14N 015-03E
Jun 28, 2022 - 11:20 AM EDT / 2022.06.28 1520 UTC
Wind: from the WSW (250 degrees) at 6 MPH (5 KT) (direction variable):0
Visibility: greater than 7 mile(s):0
Sky conditions: mostly cloudy
Weather: light rain
Temperature: 62 F (17 C)
Dew Point: 59 F (15 C)
Relative Humidity: 88%
Pressure (altimeter): 30.06 in. Hg (1018 hPa)
ob: ESOE 281520Z 25005KT 210V280 9999 -RA FEW015 BKN065 17/15 Q1018
cycle: 15

Station Type Date Time Source
ESOE TAF 2022/03/13 08:53 UTC NOAA

TAF ESOE 130730Z 1308/1321 VRB03KT CAVOK

Example: see airport list